Time;durP1;ratioP1;P1;durP2;ratioP2;P2;SDS_P1;SDS_P2;PMS_P1;PMS_P2;Temp;Humidity;BMP_temperature;BMP_pressure;BME280_temperature;BME280_humidity;BME280_pressure;Samples;Min_cycle;Max_cycle;Signal;HPM_P1;HPM_P2
2023/09/15 00:00:17;;;;;;;6.80;4.50;;;;;;;15.37;73.74;98231.25;5022800;28;20494;-80
2023/09/15 00:02:47;;;;;;;4.73;4.33;;;;;;;15.17;75.04;98230.66;5022498;28;20856;-80
2023/09/15 00:05:15;;;;;;;5.33;4.90;;;;;;;15.21;75.02;98231.88;5026111;28;20463;-79
2023/09/15 00:07:42;;;;;;;5.30;4.40;;;;;;;15.13;75.29;98229.44;5018283;28;20469;-80
2023/09/15 00:10:11;;;;;;;4.70;4.20;;;;;;;15.22;75.05;98227.25;5025936;28;20785;-80
2023/09/15 00:12:38;;;;;;;4.73;4.30;;;;;;;15.21;75.04;98231.03;5022046;28;20503;-80
2023/09/15 00:15:08;;;;;;;4.97;4.57;;;;;;;14.98;75.96;98237.97;5018976;28;20511;-80
2023/09/15 00:17:36;;;;;;;5.53;5.00;;;;;;;14.92;76.19;98233.44;5022082;28;20472;-80
2023/09/15 00:20:13;;;;;;;6.77;6.17;;;;;;;14.86;76.62;98233.50;5029939;28;21026;-80
2023/09/15 00:22:41;;;;;;;5.53;5.03;;;;;;;14.67;77.46;98236.16;5026263;28;20463;-80
2023/09/15 00:25:10;;;;;;;5.53;4.93;;;;;;;14.44;78.82;98228.63;5019210;28;20470;-80
2023/09/15 00:27:38;;;;;;;5.60;5.10;;;;;;;14.56;78.18;98228.75;5016690;28;21042;-80
2023/09/15 00:30:08;;;;;;;6.50;5.90;;;;;;;14.36;79.86;98230.75;5019680;28;20463;-80
2023/09/15 00:32:39;;;;;;;5.90;5.40;;;;;;;14.44;79.82;98231.34;5019798;28;20520;-80
2023/09/15 00:35:08;;;;;;;5.77;5.27;;;;;;;14.48;79.75;98220.00;5021135;28;20463;-80
2023/09/15 00:37:36;;;;;;;5.60;5.07;;;;;;;14.41;79.92;98225.50;5017187;28;20498;-79
2023/09/15 00:40:06;;;;;;;4.53;4.17;;;;;;;14.30;79.82;98215.28;5031250;28;20455;-80
2023/09/15 00:42:34;;;;;;;6.00;5.50;;;;;;;14.34;80.28;98209.19;5020886;28;20507;-80
2023/09/15 00:45:04;;;;;;;5.50;5.00;;;;;;;14.47;79.74;98208.28;5023972;28;20471;-80
2023/09/15 00:47:32;;;;;;;5.70;5.20;;;;;;;14.53;79.85;98220.19;5015346;28;20533;-79
2023/09/15 00:49:59;;;;;;;5.50;5.10;;;;;;;14.57;79.81;98218.69;5027830;28;20455;-80
2023/09/15 00:52:28;;;;;;;5.50;5.00;;;;;;;14.77;79.21;98220.16;5011926;28;20487;-79
2023/09/15 00:54:55;;;;;;;6.33;5.73;;;;;;;14.84;78.56;98219.25;5028390;28;20517;-80
2023/09/15 00:57:23;;;;;;;6.73;5.50;;;;;;;14.73;79.17;98218.09;5029299;28;20485;-80
2023/09/15 00:59:50;;;;;;;5.77;5.27;;;;;;;14.69;79.58;98225.03;5027144;28;20462;-79
2023/09/15 01:02:17;;;;;;;6.20;5.70;;;;;;;14.48;80.50;98215.41;5021431;28;20538;-79
2023/09/15 01:04:45;;;;;;;5.97;5.50;;;;;;;14.39;81.28;98219.41;5019974;28;20583;-80
2023/09/15 01:07:12;;;;;;;5.90;5.23;;;;;;;14.37;81.32;98216.06;5015340;28;21011;-80
2023/09/15 01:09:40;;;;;;;6.10;5.27;;;;;;;14.32;81.24;98221.34;5022925;28;20448;-80
2023/09/15 01:12:07;;;;;;;6.83;6.30;;;;;;;14.35;81.21;98208.13;5013282;28;20577;-80
2023/09/15 01:14:35;;;;;;;5.70;5.20;;;;;;;14.35;81.15;98210.03;5016666;28;20524;-80
2023/09/15 01:17:09;;;;;;;6.60;6.10;;;;;;;14.56;80.24;98212.41;5026949;28;20479;-80
2023/09/15 01:19:54;;;;;;;6.47;5.97;;;;;;;14.62;79.86;98210.69;5026780;28;20455;-79
2023/09/15 01:22:37;;;;;;;6.93;6.23;;;;;;;14.48;80.64;98204.50;5027132;28;20465;-79
2023/09/15 01:25:29;;;;;;;6.17;5.67;;;;;;;14.40;80.96;98191.97;5012881;28;20552;-80
2023/09/15 01:28:09;;;;;;;5.37;4.87;;;;;;;14.45;80.49;98192.16;5014039;28;20491;-79
2023/09/15 01:30:38;;;;;;;6.00;5.50;;;;;;;14.32;81.48;98196.84;5017003;28;20461;-80
2023/09/15 01:33:06;;;;;;;5.83;5.33;;;;;;;14.33;81.52;98196.63;5020289;28;20487;-80
2023/09/15 01:35:33;;;;;;;5.13;4.67;;;;;;;14.32;81.59;98199.56;5014178;28;21046;-79
2023/09/15 01:38:00;;;;;;;5.47;4.97;;;;;;;14.40;81.45;98196.56;5013288;28;20515;-79
2023/09/15 01:40:27;;;;;;;5.27;4.87;;;;;;;14.25;81.94;98204.25;5015265;28;20538;-79
2023/09/15 01:42:54;;;;;;;5.33;4.83;;;;;;;14.25;82.15;98201.53;5019376;28;21078;-79
2023/09/15 01:45:21;;;;;;;5.70;5.30;;;;;;;14.29;81.87;98202.75;5024541;28;20546;-79
2023/09/15 01:47:50;;;;;;;4.90;4.50;;;;;;;14.29;81.96;98202.75;5018436;28;20561;-79
2023/09/15 01:50:16;;;;;;;5.47;5.07;;;;;;;14.23;82.01;98209.09;5026207;28;20462;-79
2023/09/15 01:52:45;;;;;;;5.63;5.23;;;;;;;14.27;81.47;98204.88;5020458;28;20510;-80
2023/09/15 01:55:12;;;;;;;5.37;4.97;;;;;;;14.30;81.43;98198.94;5010280;28;20543;-79
2023/09/15 01:57:38;;;;;;;6.00;5.50;;;;;;;14.12;81.68;98202.47;5015351;28;20997;-79
2023/09/15 02:00:08;;;;;;;6.33;5.00;;;;;;;14.06;82.12;98206.06;5017965;28;20451;-79
2023/09/15 02:02:35;;;;;;;5.57;5.17;;;;;;;14.12;81.78;98206.00;5027042;28;20982;-79
2023/09/15 02:05:03;;;;;;;6.20;5.60;;;;;;;14.17;81.90;98201.81;5016505;28;20461;-79
2023/09/15 02:07:30;;;;;;;6.23;5.63;;;;;;;14.17;81.78;98196.34;5012951;28;20954;-79
2023/09/15 02:09:57;;;;;;;5.47;5.03;;;;;;;14.27;81.58;98202.97;5027221;28;20573;-79
2023/09/15 02:12:23;;;;;;;5.90;5.30;;;;;;;14.08;82.26;98212.94;5018337;28;20483;-79
2023/09/15 02:14:50;;;;;;;6.23;5.63;;;;;;;13.96;83.42;98197.56;5019843;28;20461;-79
2023/09/15 02:17:17;;;;;;;6.53;6.03;;;;;;;13.98;83.55;98193.53;5020595;28;20542;-79
2023/09/15 02:19:44;;;;;;;6.00;5.50;;;;;;;13.98;83.03;98200.88;5014395;28;20487;-80
2023/09/15 02:22:13;;;;;;;5.80;5.23;;;;;;;13.95;83.23;98198.63;5027382;28;20472;-79
2023/09/15 02:24:39;;;;;;;5.97;5.47;;;;;;;14.04;82.84;98198.13;5019334;28;20457;-79
2023/09/15 02:27:06;;;;;;;5.63;5.23;;;;;;;13.96;82.76;98195.69;5026439;28;20532;-79
2023/09/15 02:29:33;;;;;;;6.40;5.80;;;;;;;13.88;83.18;98192.38;5024360;28;20488;-79
2023/09/15 02:32:00;;;;;;;6.00;5.50;;;;;;;13.83;83.55;98195.75;5024015;28;20464;-79
2023/09/15 02:34:27;;;;;;;5.60;5.20;;;;;;;13.79;83.47;98195.34;5016700;28;20552;-80
2023/09/15 02:36:54;;;;;;;5.87;5.43;;;;;;;13.88;83.22;98195.94;5025544;28;20567;-80
2023/09/15 02:39:22;;;;;;;5.77;5.27;;;;;;;13.92;83.19;98199.88;5029190;28;20454;-79
2023/09/15 02:41:48;;;;;;;5.27;4.77;;;;;;;14.06;81.92;98201.44;5020247;28;20814;-80
2023/09/15 02:44:15;;;;;;;5.90;5.37;;;;;;;13.61;84.15;98202.59;5026207;28;20818;-80
2023/09/15 02:46:42;;;;;;;6.23;5.63;;;;;;;13.79;83.55;98211.69;5011474;28;21054;-79
2023/09/15 02:49:09;;;;;;;5.13;4.73;;;;;;;13.93;82.81;98211.59;5011980;28;21089;-79
2023/09/15 02:51:37;;;;;;;5.83;5.30;;;;;;;13.84;83.06;98207.47;5015132;28;20625;-80
2023/09/15 02:54:04;;;;;;;6.57;5.97;;;;;;;13.76;83.34;98203.94;5011743;28;21014;-80
2023/09/15 02:56:32;;;;;;;6.87;6.37;;;;;;;13.68;83.77;98197.94;5015946;28;20863;-80
2023/09/15 02:58:59;;;;;;;6.03;5.50;;;;;;;13.49;84.98;98198.88;5025797;28;20809;-80
2023/09/15 03:01:26;;;;;;;7.50;6.10;;;;;;;13.61;83.97;98195.28;5013568;28;20550;-79
2023/09/15 03:03:53;;;;;;;5.60;5.17;;;;;;;13.61;84.25;98197.16;5014830;28;20554;-79
2023/09/15 03:06:20;;;;;;;6.77;5.73;;;;;;;13.67;83.45;98201.69;5016716;28;20461;-80
2023/09/15 03:08:46;;;;;;;6.17;5.57;;;;;;;13.74;83.31;98197.06;5020697;28;20468;-80
2023/09/15 03:11:14;;;;;;;6.13;5.63;;;;;;;13.70;83.44;98190.38;5019614;28;20958;-80
2023/09/15 03:13:42;;;;;;;7.17;5.83;;;;;;;13.69;83.21;98194.16;5011281;28;20581;-80
2023/09/15 03:16:10;;;;;;;6.33;5.90;;;;;;;13.61;83.81;98194.44;5018869;28;20457;-79
2023/09/15 03:18:37;;;;;;;7.30;6.50;;;;;;;13.47;84.59;98196.38;5022419;28;20476;-80
2023/09/15 03:21:04;;;;;;;6.37;5.87;;;;;;;13.45;83.95;98183.00;5012814;28;21067;-79
2023/09/15 03:23:31;;;;;;;6.73;6.23;;;;;;;13.43;84.23;98201.41;5019334;28;20458;-79
2023/09/15 03:26:01;;;;;;;6.60;5.57;;;;;;;13.32;85.39;98193.13;5021953;28;20459;-80
2023/09/15 03:28:28;;;;;;;6.60;6.00;;;;;;;13.52;84.31;98203.88;5014237;28;20485;-79
2023/09/15 03:30:56;;;;;;;5.97;5.47;;;;;;;13.48;84.54;98199.94;5019183;28;21068;-78
2023/09/15 03:33:24;;;;;;;5.87;5.33;;;;;;;13.40;84.54;98193.69;5021785;28;20529;-80
2023/09/15 03:35:51;;;;;;;6.20;5.70;;;;;;;13.29;85.29;98199.81;5017809;28;20564;-76
2023/09/15 03:38:18;;;;;;;6.40;5.77;;;;;;;13.42;84.80;98193.47;5008408;28;20481;-79
2023/09/15 03:40:45;;;;;;;7.53;6.70;;;;;;;13.49;84.70;98198.88;5023273;28;20948;-78
2023/09/15 03:43:12;;;;;;;6.90;6.37;;;;;;;13.29;85.71;98201.69;5024818;28;20191;-78
2023/09/15 03:45:39;;;;;;;7.20;6.60;;;;;;;13.37;85.03;98190.56;5019275;28;20449;-77
2023/09/15 03:48:07;;;;;;;6.33;5.80;;;;;;;13.21;85.95;98197.34;5018138;28;20564;-78
2023/09/15 03:50:34;;;;;;;6.90;6.40;;;;;;;13.21;86.37;98186.47;5013916;28;20523;-77
2023/09/15 03:53:00;;;;;;;8.27;7.57;;;;;;;13.13;87.31;98189.38;5024788;28;20498;-77
2023/09/15 03:55:27;;;;;;;6.57;6.07;;;;;;;13.17;86.76;98190.66;5023347;28;20466;-78
2023/09/15 03:57:54;;;;;;;7.63;7.07;;;;;;;13.26;86.16;98189.38;5019672;28;21031;-77
2023/09/15 04:00:22;;;;;;;7.53;6.87;;;;;;;13.19;86.83;98182.28;5017856;28;20467;-75
2023/09/15 04:02:48;;;;;;;8.00;7.30;;;;;;;13.11;87.16;98180.59;5017765;28;21240;-76
2023/09/15 04:05:17;;;;;;;7.50;6.90;;;;;;;13.26;86.06;98183.94;5019164;28;20293;-76
2023/09/15 04:07:44;;;;;;;7.23;6.63;;;;;;;13.30;85.32;98179.75;5022098;28;20480;-76
2023/09/15 04:10:10;;;;;;;7.70;7.10;;;;;;;13.36;85.40;98178.00;5024694;28;20536;-74
2023/09/15 04:12:38;;;;;;;7.07;6.47;;;;;;;13.43;84.88;98181.53;5022578;28;20484;-75
2023/09/15 04:15:05;;;;;;;7.30;6.67;;;;;;;13.37;84.88;98175.06;5015602;28;20686;-75
2023/09/15 04:17:32;;;;;;;6.50;6.00;;;;;;;13.53;83.72;98171.03;5016382;28;20487;-70
2023/09/15 04:19:59;;;;;;;6.90;6.30;;;;;;;13.69;83.05;98167.78;5014584;28;20869;-71
2023/09/15 04:22:28;;;;;;;6.40;5.80;;;;;;;13.59;83.33;98175.63;5009744;28;20488;-78
2023/09/15 04:24:55;;;;;;;7.13;6.53;;;;;;;13.41;84.19;98170.88;5014277;28;20459;-77
2023/09/15 04:27:22;;;;;;;6.60;6.03;;;;;;;13.51;83.51;98170.41;5028795;28;20510;-77
2023/09/15 04:29:53;;;;;;;7.40;6.80;;;;;;;13.38;83.84;98176.75;5024701;28;20579;-79
2023/09/15 04:32:19;;;;;;;6.77;6.17;;;;;;;13.30;84.46;98174.31;5016900;28;21922;-80
2023/09/15 04:34:47;;;;;;;6.10;5.60;;;;;;;13.26;84.15;98170.34;5024496;28;20488;-80
2023/09/15 04:37:13;;;;;;;6.17;5.63;;;;;;;13.33;84.03;98176.56;5019460;28;20476;-79
2023/09/15 04:39:42;;;;;;;6.60;6.03;;;;;;;13.22;84.67;98168.28;5024551;28;20447;-79
2023/09/15 04:42:10;;;;;;;7.78;7.10;;;;;;;13.35;83.87;98179.06;5017334;28;20581;-79
2023/09/15 04:44:37;;;;;;;6.63;6.03;;;;;;;13.37;83.97;98175.06;5013022;28;20286;-79
2023/09/15 04:47:04;;;;;;;7.20;6.60;;;;;;;13.43;83.37;98170.66;5025783;28;21030;-79
2023/09/15 04:49:31;;;;;;;6.40;5.77;;;;;;;13.43;83.39;98168.78;5021789;28;20984;-79
2023/09/15 04:51:58;;;;;;;6.43;5.93;;;;;;;13.37;83.57;98175.06;5005046;28;20600;-78
2023/09/15 04:54:26;;;;;;;7.10;6.50;;;;;;;13.19;84.22;98177.69;5012558;28;20522;-79
2023/09/15 04:56:54;;;;;;;6.73;5.80;;;;;;;13.16;84.46;98175.41;5009905;28;21078;-79
2023/09/15 04:59:21;;;;;;;7.40;6.70;;;;;;;13.08;85.24;98173.72;5016612;28;20473;-78
2023/09/15 05:01:48;;;;;;;6.13;5.63;;;;;;;13.26;84.54;98164.06;5021904;28;20968;-79
2023/09/15 05:04:15;;;;;;;8.30;7.07;;;;;;;13.32;84.41;98164.00;5018578;28;20202;-79
2023/09/15 05:06:42;;;;;;;6.90;6.10;;;;;;;13.31;84.52;98158.81;5016704;28;20886;-78
2023/09/15 05:09:10;;;;;;;6.47;5.90;;;;;;;13.17;83.65;98120.00;5015611;28;20461;-79
2023/09/15 05:11:37;;;;;;;7.03;6.43;;;;;;;13.23;84.31;98165.34;5024517;28;20831;-79
2023/09/15 05:14:05;;;;;;;7.47;6.87;;;;;;;13.18;84.69;98169.75;5013456;28;20858;-79
2023/09/15 05:16:33;;;;;;;7.70;7.00;;;;;;;13.24;84.35;98168.88;5009420;28;20476;-79
2023/09/15 05:19:00;;;;;;;6.85;6.25;;;;;;;13.29;84.46;98167.19;5020821;28;20458;-79
2023/09/15 05:21:27;;;;;;;6.78;6.18;;;;;;;13.41;84.07;98167.31;4965753;28;20773;-78
2023/09/15 05:23:54;;;;;;;8.75;7.95;;;;;;;13.48;83.38;98173.56;4959379;28;20210;-79
2023/09/15 05:26:21;;;;;;;7.60;6.90;;;;;;;13.41;83.63;98173.59;5009193;28;21558;-79
2023/09/15 05:28:48;;;;;;;7.80;7.13;;;;;;;13.37;83.94;98180.53;5007087;28;20514;-79
2023/09/15 05:31:17;;;;;;;8.57;7.78;;;;;;;13.50;83.39;98178.78;5012709;28;20527;-80
2023/09/15 05:33:44;;;;;;;8.30;7.63;;;;;;;13.31;84.52;98192.28;5013334;28;20287;-80
2023/09/15 05:36:12;;;;;;;8.40;7.63;;;;;;;13.21;84.91;98189.19;5022228;28;20465;-80
2023/09/15 05:38:39;;;;;;;8.50;7.60;;;;;;;13.11;85.17;98197.75;5009103;28;20541;-81
2023/09/15 05:41:06;;;;;;;9.03;8.23;;;;;;;13.20;84.67;98192.94;5012714;28;20994;-80
2023/09/15 05:43:33;;;;;;;7.60;6.90;;;;;;;13.17;84.11;98190.66;5007232;28;20475;-80
2023/09/15 05:45:59;;;;;;;12.27;11.07;;;;;;;13.28;84.16;98187.28;5011438;28;20280;-79
2023/09/15 05:48:28;;;;;;;12.15;11.05;;;;;;;13.40;83.88;98185.53;5013001;28;21270;-75
2023/09/15 05:50:54;;;;;;;8.77;7.87;;;;;;;13.63;83.05;98190.44;5008193;28;20653;-73
2023/09/15 05:53:21;;;;;;;9.60;8.80;;;;;;;13.75;82.55;98196.00;5013170;28;20605;-74
2023/09/15 05:55:48;;;;;;;7.63;6.93;;;;;;;14.46;79.52;98195.72;5023830;28;20472;-73
2023/09/15 05:58:15;;;;;;;7.53;6.80;;;;;;;14.91;76.57;98177.25;5013571;28;20458;-73
2023/09/15 06:00:42;;;;;;;9.43;8.63;;;;;;;15.24;75.27;98190.50;5019098;28;20466;-74
2023/09/15 06:03:09;;;;;;;16.60;15.13;;;;;;;15.78;73.17;98189.59;5011704;28;20468;-74
2023/09/15 06:05:37;;;;;;;18.73;16.93;;;;;;;16.28;70.64;98180.22;5012667;28;20479;-74
2023/09/15 06:08:06;;;;;;;7.50;6.93;;;;;;;16.88;68.01;98183.63;5006333;28;20473;-74
2023/09/15 06:10:33;;;;;;;6.67;6.17;;;;;;;17.51;65.89;98188.25;5011491;28;20460;-75
2023/09/15 06:13:00;;;;;;;6.33;5.73;;;;;;;17.92;63.69;98192.63;5005494;28;20497;-74
2023/09/15 06:15:26;;;;;;;6.53;5.73;;;;;;;18.43;62.47;98185.31;5010086;28;20928;-75
2023/09/15 06:17:53;;;;;;;6.03;5.53;;;;;;;18.63;61.26;98191.13;5021017;28;20480;-75
2023/09/15 06:20:20;;;;;;;7.37;5.30;;;;;;;19.12;59.78;98183.94;5012921;28;20460;-74
2023/09/15 06:22:48;;;;;;;6.33;5.60;;;;;;;19.39;59.04;98188.66;5010134;28;20456;-75
2023/09/15 06:25:16;;;;;;;5.70;5.20;;;;;;;19.79;57.54;98185.59;5014087;28;20448;-74
2023/09/15 06:27:42;;;;;;;6.00;5.37;;;;;;;19.64;57.37;98190.91;5024362;28;20497;-75
2023/09/15 06:30:10;;;;;;;5.43;4.83;;;;;;;19.56;58.34;98196.84;5015944;28;20471;-75
2023/09/15 06:32:37;;;;;;;8.90;4.80;;;;;;;19.85;57.55;98198.28;5006177;28;20848;-75
2023/09/15 06:35:04;;;;;;;7.20;5.53;;;;;;;20.26;56.08;98196.78;5014239;28;20497;-75
2023/09/15 06:37:30;;;;;;;13.23;9.03;;;;;;;20.70;54.29;98199.41;5011249;28;20491;-76
2023/09/15 06:39:59;;;;;;;6.83;6.33;;;;;;;21.03;53.27;98195.50;5023641;28;20488;-75
2023/09/15 06:42:26;;;;;;;11.87;10.97;;;;;;;21.34;52.70;98189.09;5019503;28;20581;-75
2023/09/15 06:44:53;;;;;;;5.83;5.43;;;;;;;21.13;52.27;98190.03;5016254;28;20902;-75
2023/09/15 06:47:19;;;;;;;5.90;5.40;;;;;;;21.25;52.67;98190.69;5010095;28;20477;-76
2023/09/15 06:49:46;;;;;;;5.87;5.40;;;;;;;21.48;51.74;98191.34;5022146;28;20543;-76
2023/09/15 06:52:13;;;;;;;14.73;13.60;;;;;;;21.49;51.23;98190.25;5016706;28;20483;-75
2023/09/15 06:54:40;;;;;;;19.87;17.93;;;;;;;21.74;51.15;98195.88;5012805;28;20677;-76
2023/09/15 06:57:08;;;;;;;8.13;7.43;;;;;;;21.85;50.31;98178.25;5016850;28;20481;-76
2023/09/15 06:59:35;;;;;;;6.03;5.50;;;;;;;22.21;49.83;98181.13;5011695;28;20457;-76
2023/09/15 07:02:02;;;;;;;35.40;32.40;;;;;;;22.34;49.68;98183.34;5019717;28;20471;-76
2023/09/15 07:04:29;;;;;;;13.63;12.60;;;;;;;22.18;50.49;98188.00;5018937;28;20448;-75
2023/09/15 07:06:56;;;;;;;6.40;5.90;;;;;;;22.72;48.78;98181.97;5018729;28;20477;-75
2023/09/15 07:09:24;;;;;;;6.90;6.30;;;;;;;22.45;49.65;98179.47;5017527;28;20468;-74
2023/09/15 07:11:51;;;;;;;5.90;5.40;;;;;;;22.92;48.23;98175.63;5018154;28;20463;-74
2023/09/15 07:14:19;;;;;;;5.13;4.73;;;;;;;23.41;47.01;98176.59;5013009;28;20490;-75
2023/09/15 07:16:46;;;;;;;19.10;17.60;;;;;;;23.67;46.26;98182.06;5015181;28;20479;-75
2023/09/15 07:19:13;;;;;;;30.30;27.90;;;;;;;24.02;45.65;98175.53;5022169;28;20465;-76
2023/09/15 07:21:41;;;;;;;6.43;5.93;;;;;;;23.73;46.38;98170.69;5028114;28;20504;-75
2023/09/15 07:24:08;;;;;;;5.87;5.23;;;;;;;24.18;45.46;98163.22;5020573;28;20464;-76
2023/09/15 07:26:35;;;;;;;5.77;5.30;;;;;;;24.60;44.08;98170.97;5014170;28;20476;-76
2023/09/15 07:29:03;;;;;;;6.63;6.00;;;;;;;24.78;43.50;98170.25;5024202;28;20448;-76
2023/09/15 07:31:35;;;;;;;11.13;5.80;;;;;;;25.04;43.12;98172.78;5018871;28;20460;-76
2023/09/15 07:34:02;;;;;;;16.10;6.83;;;;;;;25.16;42.90;98164.91;5014789;28;20495;-75
2023/09/15 07:36:29;;;;;;;6.47;5.77;;;;;;;25.17;42.52;98179.59;5023259;28;20575;-72
2023/09/15 07:38:56;;;;;;;14.63;6.27;;;;;;;25.27;42.33;98169.22;5021760;28;20486;-74
2023/09/15 07:41:23;;;;;;;7.90;7.27;;;;;;;25.51;41.65;98165.63;5016755;28;20968;-76
2023/09/15 07:43:50;;;;;;;67.87;63.17;;;;;;;25.36;42.63;98170.22;5018182;28;20456;-76
2023/09/15 07:46:17;;;;;;;47.87;44.67;;;;;;;25.84;41.63;98170.22;5024573;28;20555;-77
2023/09/15 07:48:45;;;;;;;8.70;7.00;;;;;;;26.26;40.53;98174.06;5021579;28;20979;-76
2023/09/15 07:51:13;;;;;;;9.80;7.37;;;;;;;26.62;40.11;98169.63;5020873;28;20455;-76
2023/09/15 07:53:40;;;;;;;6.27;5.67;;;;;;;26.70;39.01;98171.69;5013648;28;20468;-77
2023/09/15 07:56:07;;;;;;;6.07;5.63;;;;;;;25.66;41.77;98168.25;5015221;28;20535;-76
2023/09/15 07:58:34;;;;;;;6.43;5.90;;;;;;;24.48;44.67;98181.56;5013862;28;20456;-77
2023/09/15 08:01:02;;;;;;;7.83;7.00;;;;;;;23.53;47.15;98181.00;5019767;28;20479;-76
2023/09/15 08:03:29;;;;;;;7.37;6.77;;;;;;;23.16;48.55;98187.72;5022737;28;20483;-76
2023/09/15 08:05:57;;;;;;;5.97;5.57;;;;;;;23.74;47.62;98168.75;5015942;28;20538;-76
2023/09/15 08:08:24;;;;;;;7.60;5.70;;;;;;;24.28;46.64;98170.66;5017603;28;20463;-74
2023/09/15 08:10:51;;;;;;;7.40;6.90;;;;;;;24.99;44.71;98172.88;5019567;28;20539;-76
2023/09/15 08:13:17;;;;;;;6.63;6.13;;;;;;;26.28;41.37;98161.53;5021920;28;20544;-76
2023/09/15 08:15:44;;;;;;;7.47;6.77;;;;;;;26.18;41.28;98158.06;5018546;28;20567;-75
2023/09/15 08:18:11;;;;;;;27.50;25.20;;;;;;;26.22;41.38;98159.13;5020595;28;20535;-77
2023/09/15 08:20:38;;;;;;;6.70;6.20;;;;;;;26.02;41.43;98155.50;5021375;28;20835;-76
2023/09/15 08:23:06;;;;;;;9.73;8.83;;;;;;;25.58;42.56;98155.00;5009808;28;20457;-76
2023/09/15 08:25:33;;;;;;;7.67;7.03;;;;;;;26.76;40.64;98156.59;5027159;28;20543;-76
2023/09/15 08:28:02;;;;;;;6.60;5.90;;;;;;;27.22;39.63;98158.56;5019791;28;20502;-77
2023/09/15 08:30:30;;;;;;;6.23;5.83;;;;;;;28.22;37.25;98150.34;5026605;28;20550;-76
2023/09/15 08:32:57;;;;;;;5.70;5.20;;;;;;;28.26;36.98;98156.94;5017267;28;20459;-76
2023/09/15 08:35:23;;;;;;;18.23;16.83;;;;;;;27.56;38.51;98157.31;5012177;28;20958;-76
2023/09/15 08:37:50;;;;;;;75.77;70.87;;;;;;;27.69;38.41;98159.28;5024177;28;20476;-76
2023/09/15 08:40:19;;;;;;;6.30;5.90;;;;;;;28.05;37.60;98157.38;5018465;28;20946;-75
2023/09/15 08:42:46;;;;;;;5.63;5.20;;;;;;;27.98;37.05;98161.72;5022147;28;20464;-76
2023/09/15 08:45:14;;;;;;;5.90;5.50;;;;;;;28.35;36.73;98143.91;5015037;28;20458;-76
2023/09/15 08:47:47;;;;;;;5.93;5.20;;;;;;;29.16;36.15;98146.59;5016548;28;20464;-76
2023/09/15 08:50:14;;;;;;;15.03;7.17;;;;;;;29.31;35.15;98149.75;5019312;28;20483;-76
2023/09/15 08:52:41;;;;;;;11.57;6.40;;;;;;;29.12;35.38;98137.22;5012702;28;20465;-76
2023/09/15 08:55:08;;;;;;;6.80;5.40;;;;;;;29.34;35.42;98157.47;5019620;28;20504;-76
2023/09/15 08:57:39;;;;;;;6.00;5.60;;;;;;;29.00;36.44;98154.53;5018475;28;20987;-76
2023/09/15 09:00:08;;;;;;;6.20;5.80;;;;;;;29.09;36.26;98147.03;5027264;28;20467;-76
2023/09/15 09:02:36;;;;;;;5.60;5.20;;;;;;;29.22;35.51;98140.56;5024130;28;20463;-76
2023/09/15 09:05:02;;;;;;;5.47;5.07;;;;;;;29.21;35.52;98138.91;5012514;28;20479;-76
2023/09/15 09:07:30;;;;;;;5.40;5.00;;;;;;;29.74;34.80;98140.75;5020680;28;20476;-75
2023/09/15 09:09:58;;;;;;;5.97;5.47;;;;;;;29.12;35.93;98145.59;5012028;28;20488;-75
2023/09/15 09:12:24;;;;;;;5.90;5.47;;;;;;;29.53;35.15;98134.97;5018659;28;20448;-75
2023/09/15 09:14:55;;;;;;;8.30;7.60;;;;;;;29.95;33.71;98130.59;5017846;28;20488;-75
2023/09/15 09:17:22;;;;;;;5.40;5.00;;;;;;;29.90;33.88;98127.97;5026971;28;21533;-74
2023/09/15 09:19:49;;;;;;;6.03;5.60;;;;;;;29.69;34.27;98124.16;5015834;28;21445;-73
2023/09/15 09:22:17;;;;;;;6.30;5.70;;;;;;;30.07;34.21;98127.19;5021436;28;20827;-73
2023/09/15 09:24:45;;;;;;;5.50;5.07;;;;;;;30.42;33.45;98122.44;5017672;28;20457;-72
2023/09/15 09:27:13;;;;;;;10.33;6.40;;;;;;;29.43;34.89;98129.66;5023119;28;20467;-72
2023/09/15 09:29:40;;;;;;;6.37;5.83;;;;;;;29.65;34.68;98123.16;5009870;28;20467;-72
2023/09/15 09:32:13;;;;;;;10.03;6.00;;;;;;;30.26;34.05;98116.50;5010676;28;20467;-75
2023/09/15 09:34:40;;;;;;;24.03;7.67;;;;;;;30.86;32.96;98120.44;5019145;28;20834;-77
2023/09/15 09:37:07;;;;;;;6.17;5.67;;;;;;;30.40;33.55;98113.56;5024875;28;20480;-75
2023/09/15 09:39:35;;;;;;;8.83;5.50;;;;;;;30.03;34.50;98118.66;5016367;28;20457;-73
2023/09/15 09:42:02;;;;;;;10.67;9.77;;;;;;;30.31;34.30;98113.56;5016188;28;20573;-76
2023/09/15 09:44:30;;;;;;;5.70;5.30;;;;;;;30.83;33.33;98121.09;5029440;28;20541;-76
2023/09/15 09:46:57;;;;;;;6.73;6.13;;;;;;;30.15;33.60;98114.41;5022398;28;20955;-75
2023/09/15 09:49:26;;;;;;;6.13;5.63;;;;;;;29.63;34.69;98108.69;5020476;28;20954;-75
2023/09/15 09:51:53;;;;;;;7.87;5.50;;;;;;;29.56;35.52;98111.19;5021174;28;20456;-75
2023/09/15 09:54:19;;;;;;;5.67;5.17;;;;;;;28.68;37.27;98114.66;5016349;28;20818;-75
2023/09/15 09:56:49;;;;;;;5.60;5.20;;;;;;;29.27;36.16;98115.28;5014452;28;20562;-75
2023/09/15 09:59:16;;;;;;;16.83;6.77;;;;;;;29.65;35.12;98109.19;5013265;28;20861;-76
2023/09/15 10:01:43;;;;;;;5.57;5.10;;;;;;;29.01;36.75;98111.56;5015816;28;20449;-75
2023/09/15 10:04:10;;;;;;;4.30;4.00;;;;;;;29.07;36.23;98107.50;5026816;28;20448;-75
2023/09/15 10:06:38;;;;;;;4.20;3.90;;;;;;;29.36;36.54;98107.78;5017326;28;20476;-75
2023/09/15 10:09:06;;;;;;;4.10;3.90;;;;;;;30.26;33.82;98099.75;5018129;28;20475;-75
2023/09/15 10:11:34;;;;;;;5.00;4.70;;;;;;;30.23;34.15;98096.78;5012599;28;20448;-75
2023/09/15 10:14:03;;;;;;;6.90;6.37;;;;;;;29.54;34.89;98096.72;5013691;28;20547;-73
2023/09/15 10:16:32;;;;;;;6.17;5.77;;;;;;;30.06;35.09;98087.28;5017218;28;20493;-75
2023/09/15 10:18:59;;;;;;;6.77;6.27;;;;;;;29.82;35.49;98086.91;5009748;28;20457;-75
2023/09/15 10:21:28;;;;;;;4.40;4.00;;;;;;;29.92;34.96;98086.59;5010339;28;20464;-75
2023/09/15 10:24:07;;;;;;;6.80;6.40;;;;;;;29.14;36.42;98091.16;5014629;28;20556;-75
2023/09/15 10:26:34;;;;;;;6.27;5.87;;;;;;;28.64;38.28;98084.94;5010521;28;20545;-74
2023/09/15 10:29:02;;;;;;;6.10;5.43;;;;;;;29.20;36.54;98080.69;5013034;28;20453;-75
2023/09/15 10:31:30;;;;;;;6.57;6.07;;;;;;;29.69;35.83;98083.13;5020714;28;20492;-75
2023/09/15 10:34:00;;;;;;;7.30;6.60;;;;;;;30.30;35.09;98069.19;5010721;28;20452;-75
2023/09/15 10:36:27;;;;;;;5.87;5.33;;;;;;;29.87;36.34;98077.56;5026359;28;20485;-74
2023/09/15 10:38:54;;;;;;;5.57;5.07;;;;;;;29.27;37.01;98067.88;5024850;28;21036;-74
2023/09/15 10:41:26;;;;;;;6.20;5.80;;;;;;;29.77;37.17;98073.13;5027877;28;20452;-75
2023/09/15 10:43:53;;;;;;;5.70;5.30;;;;;;;30.38;35.17;98060.00;5015729;28;20452;-74
2023/09/15 10:46:20;;;;;;;5.23;4.83;;;;;;;30.78;34.98;98073.75;5016254;28;20491;-74
2023/09/15 10:48:48;;;;;;;4.80;4.47;;;;;;;29.96;35.63;98059.66;5015999;28;20468;-74
2023/09/15 10:51:18;;;;;;;5.20;4.60;;;;;;;30.37;34.61;98050.78;5010502;28;20537;-75
2023/09/15 10:53:44;;;;;;;41.67;10.03;;;;;;;30.08;36.58;98054.28;5008565;28;20466;-75
2023/09/15 10:56:13;;;;;;;5.53;5.13;;;;;;;30.08;35.76;98048.69;5016157;28;20492;-74
2023/09/15 10:58:42;;;;;;;5.20;4.80;;;;;;;30.31;34.45;98010.22;5013946;28;20453;-75
2023/09/15 11:01:10;;;;;;;7.30;6.60;;;;;;;30.29;34.95;98039.63;5016278;28;20471;-74
2023/09/15 11:03:37;;;;;;;4.67;4.37;;;;;;;30.36;35.06;98042.75;5022640;28;21283;-76
2023/09/15 11:06:08;;;;;;;4.97;4.47;;;;;;;30.52;35.25;98032.69;5013521;28;20475;-76
2023/09/15 11:08:35;;;;;;;4.90;4.50;;;;;;;29.98;35.81;98007.09;5012285;28;20452;-75
2023/09/15 11:11:04;;;;;;;5.10;4.70;;;;;;;29.98;36.47;98037.81;5017598;28;20543;-74
2023/09/15 11:13:31;;;;;;;5.60;5.20;;;;;;;30.07;38.38;98027.50;5015680;28;20464;-74
2023/09/15 11:15:59;;;;;;;5.00;4.30;;;;;;;30.13;35.68;98030.13;5004451;28;20598;-73
2023/09/15 11:18:26;;;;;;;4.40;4.10;;;;;;;30.38;35.78;98018.09;5013584;28;20897;-75
2023/09/15 11:20:53;;;;;;;5.00;4.50;;;;;;;29.81;37.13;98023.06;5012354;28;20458;-73
2023/09/15 11:23:20;;;;;;;4.50;4.20;;;;;;;29.89;36.62;98020.25;5017295;28;20491;-74
2023/09/15 11:25:47;;;;;;;5.37;4.97;;;;;;;29.53;36.87;98017.78;5017709;28;20461;-72
2023/09/15 11:28:14;;;;;;;4.70;4.40;;;;;;;30.37;36.13;98010.84;5017587;28;20452;-79
2023/09/15 11:30:41;;;;;;;4.83;4.43;;;;;;;30.37;35.78;98008.06;5012464;28;20457;-79
2023/09/15 11:33:09;;;;;;;5.37;4.97;;;;;;;30.31;34.71;98001.00;5016052;28;20503;-82